Lakeside, AZ

12:40 AM MST on September 03, 2014 (GMT -0700)
Lakeside Summer Homes | Change Station
CLOSE
Current Station
Personal Weather Station
Location: Lakeside, AZ
Elevation: 6841 ft
Nearby Weather Stations

Elev 6841 ft 34.15 °N, 109.96 °W | Updated 9 seconds ago

Clear
Clear
59.7 °F
Feels Like 59.7 °F
N
0.0
Wind Variable Wind from North
Gusts 0.0 mph

Today
High -- | Low -- °F
--% Chance of Precip.
Yesterday
High -- | Low -- °F
Precip. -- in
5:54 AM 6:42 PM
First Quarter, 59% visible
Pressure 30.18 in
Visibility 10.0 miles
Clouds Clear
Dew Point 44 °F
Humidity 55%
Rainfall 0.00 in
Snow Depth Not available.
UV 0 out of 12
Pollen 6.90 out of 12
Air Quality Not available.
Flu Activity Not available.
METAR KSOW 030735Z AUTO 16006KT 10SM CLR 16/03 A3018 RMK AO2

More Conditions Fewer Conditions

Pressure 30.18 in
Visibility 10.0 miles
Clouds Clear
Dew Point 44 °F
Humidity 55%
Rainfall 0.00 in
Snow Depth Not available.
UV 0 out of 12
Pollen 6.90 out of 12
Air Quality Not available.
Flu Activity Not available.
METAR KSOW 030735Z AUTO 16006KT 10SM CLR 16/03 A3018 RMK AO2

More Conditions Fewer Conditions

10-Day Weather Forecast

Almanac

Astronomy

Sep. 03, 2014 Rise Set
Actual Time 5:54 AM MST 6:42 PM MST
Civil Twilight 5:29 AM MST 7:08 PM MST
Nautical Twilight 4:59 AM MST 7:38 PM MST
Astronomical Twilight 4:28 AM MST 8:09 PM MST
Moon 2:19 PM MST 12:00 AM MST
Length of Visible Light 13h 39m
Length of Day
12h 48m
Tomorrow will be 2m 3s shorter.
First Quarter, 59% of the Moon is Illuminated
Today
First Quarter
Sep 8
Full
Sep 15
Last Quarter
Sep 24
New
Oct 1
First Quarter

Today's Extremes

State Highs State Lows

Community

WunderPhotos

Upload Photos

1,749,899 photos uploaded!

Nearby

Snow Depth

Station Depth Elevation
Maverick Fork 0 in 9200 ft
Coronado Trail 0 in 8400 ft
Beaver Head 24 in 7990 ft
Workman Creek 2 in 6900 ft
White Horse Lake 0 in 7180 ft

Earthquake Activity

City Distance Mag. Time & Date
Lordsburg, New Mexico 118 miles 2.8 7:52 PM MST
2014-09-02
Lordsburg, New Mexico 120 miles 2.6 8:21 AM MST
2014-09-02
Minimum magnitude displayed is 2.5.

Coastal Water Temperatures

Place Temperature
No Stations Reporting

Nearby Weather Stations